sensor_id;sensor_type;location;lat;lon;timestamp;P1;durP1;ratioP1;P2;durP2;ratioP2
1682;SDS011;13252;53.596;10.060;2022-10-16T00:00:55;9.83;;;7.20;;
1682;SDS011;13252;53.596;10.060;2022-10-16T00:03:22;11.33;;;7.80;;
1682;SDS011;13252;53.596;10.060;2022-10-16T00:05:58;10.63;;;7.20;;
1682;SDS011;13252;53.596;10.060;2022-10-16T00:08:26;10.63;;;6.33;;
1682;SDS011;13252;53.596;10.060;2022-10-16T00:10:58;7.67;;;6.97;;
1682;SDS011;13252;53.596;10.060;2022-10-16T00:13:26;10.60;;;6.53;;
1682;SDS011;13252;53.596;10.060;2022-10-16T00:15:54;12.80;;;5.73;;
1682;SDS011;13252;53.596;10.060;2022-10-16T00:18:23;9.00;;;6.03;;
1682;SDS011;13252;53.596;10.060;2022-10-16T00:20:50;6.23;;;5.03;;
1682;SDS011;13252;53.596;10.060;2022-10-16T00:23:20;11.90;;;6.30;;
1682;SDS011;13252;53.596;10.060;2022-10-16T00:25:55;9.37;;;5.30;;
1682;SDS011;13252;53.596;10.060;2022-10-16T00:28:23;12.00;;;4.90;;
1682;SDS011;13252;53.596;10.060;2022-10-16T00:30:51;11.27;;;5.00;;
1682;SDS011;13252;53.596;10.060;2022-10-16T00:33:19;5.17;;;4.33;;
1682;SDS011;13252;53.596;10.060;2022-10-16T00:35:47;6.87;;;3.93;;
1682;SDS011;13252;53.596;10.060;2022-10-16T00:38:16;5.37;;;3.27;;
1682;SDS011;13252;53.596;10.060;2022-10-16T00:40:45;6.73;;;3.50;;
1682;SDS011;13252;53.596;10.060;2022-10-16T00:43:13;4.80;;;2.83;;
1682;SDS011;13252;53.596;10.060;2022-10-16T00:45:42;4.77;;;3.10;;
1682;SDS011;13252;53.596;10.060;2022-10-16T00:48:10;6.53;;;3.20;;
1682;SDS011;13252;53.596;10.060;2022-10-16T00:50:41;8.10;;;4.07;;
1682;SDS011;13252;53.596;10.060;2022-10-16T00:53:10;6.03;;;2.63;;
1682;SDS011;13252;53.596;10.060;2022-10-16T00:55:38;6.23;;;2.87;;
1682;SDS011;13252;53.596;10.060;2022-10-16T00:58:09;5.53;;;2.50;;
1682;SDS011;13252;53.596;10.060;2022-10-16T01:00:37;5.90;;;2.40;;
1682;SDS011;13252;53.596;10.060;2022-10-16T01:05:57;6.87;;;2.13;;
1682;SDS011;13252;53.596;10.060;2022-10-16T01:08:36;4.37;;;1.97;;
1682;SDS011;13252;53.596;10.060;2022-10-16T01:11:10;7.90;;;2.80;;
1682;SDS011;13252;53.596;10.060;2022-10-16T01:13:45;6.50;;;1.87;;
1682;SDS011;13252;53.596;10.060;2022-10-16T01:16:15;4.60;;;1.90;;
1682;SDS011;13252;53.596;10.060;2022-10-16T01:18:46;7.00;;;1.67;;
1682;SDS011;13252;53.596;10.060;2022-10-16T01:21:16;10.53;;;2.20;;
1682;SDS011;13252;53.596;10.060;2022-10-16T01:23:48;5.63;;;2.20;;
1682;SDS011;13252;53.596;10.060;2022-10-16T01:26:31;5.10;;;2.10;;
1682;SDS011;13252;53.596;10.060;2022-10-16T01:29:06;5.73;;;2.03;;
1682;SDS011;13252;53.596;10.060;2022-10-16T01:31:37;5.70;;;2.50;;
1682;SDS011;13252;53.596;10.060;2022-10-16T01:34:14;5.27;;;2.30;;
1682;SDS011;13252;53.596;10.060;2022-10-16T01:41:06;3.00;;;1.60;;
1682;SDS011;13252;53.596;10.060;2022-10-16T01:43:42;3.50;;;1.70;;
1682;SDS011;13252;53.596;10.060;2022-10-16T02:01:57;9.43;;;2.23;;
1682;SDS011;13252;53.596;10.060;2022-10-16T02:05:41;6.20;;;2.60;;
1682;SDS011;13252;53.596;10.060;2022-10-16T02:08:29;7.40;;;2.40;;
1682;SDS011;13252;53.596;10.060;2022-10-16T02:11:59;4.23;;;2.40;;
1682;SDS011;13252;53.596;10.060;2022-10-16T02:17:57;7.40;;;1.97;;
1682;SDS011;13252;53.596;10.060;2022-10-16T02:21:01;5.80;;;2.17;;
1682;SDS011;13252;53.596;10.060;2022-10-16T02:24:23;4.80;;;2.10;;
1682;SDS011;13252;53.596;10.060;2022-10-16T02:26:57;5.33;;;2.40;;
1682;SDS011;13252;53.596;10.060;2022-10-16T02:29:29;5.60;;;1.83;;
1682;SDS011;13252;53.596;10.060;2022-10-16T02:31:58;5.50;;;2.30;;
1682;SDS011;13252;53.596;10.060;2022-10-16T02:34:28;7.63;;;1.77;;
1682;SDS011;13252;53.596;10.060;2022-10-16T02:36:57;3.70;;;1.93;;
1682;SDS011;13252;53.596;10.060;2022-10-16T02:39:27;5.13;;;2.10;;
1682;SDS011;13252;53.596;10.060;2022-10-16T02:41:55;10.90;;;2.20;;
1682;SDS011;13252;53.596;10.060;2022-10-16T02:44:23;7.40;;;2.30;;
1682;SDS011;13252;53.596;10.060;2022-10-16T02:46:50;4.40;;;1.80;;
1682;SDS011;13252;53.596;10.060;2022-10-16T02:49:18;9.50;;;2.10;;
1682;SDS011;13252;53.596;10.060;2022-10-16T02:51:46;6.20;;;2.27;;
1682;SDS011;13252;53.596;10.060;2022-10-16T02:54:13;5.13;;;1.50;;
1682;SDS011;13252;53.596;10.060;2022-10-16T02:56:42;6.03;;;2.33;;
1682;SDS011;13252;53.596;10.060;2022-10-16T02:59:10;6.97;;;1.77;;
1682;SDS011;13252;53.596;10.060;2022-10-16T03:01:37;3.60;;;1.73;;
1682;SDS011;13252;53.596;10.060;2022-10-16T03:04:05;4.20;;;1.60;;
1682;SDS011;13252;53.596;10.060;2022-10-16T03:06:33;9.00;;;1.60;;
1682;SDS011;13252;53.596;10.060;2022-10-16T03:09:00;5.40;;;1.90;;
1682;SDS011;13252;53.596;10.060;2022-10-16T03:11:28;7.27;;;2.30;;
1682;SDS011;13252;53.596;10.060;2022-10-16T03:13:57;7.83;;;1.80;;
1682;SDS011;13252;53.596;10.060;2022-10-16T03:16:24;5.37;;;2.77;;
1682;SDS011;13252;53.596;10.060;2022-10-16T03:18:52;8.07;;;2.17;;
1682;SDS011;13252;53.596;10.060;2022-10-16T03:21:20;7.50;;;1.90;;
1682;SDS011;13252;53.596;10.060;2022-10-16T03:23:47;5.73;;;1.93;;
1682;SDS011;13252;53.596;10.060;2022-10-16T03:26:15;4.10;;;1.90;;
1682;SDS011;13252;53.596;10.060;2022-10-16T03:28:42;7.73;;;2.00;;
1682;SDS011;13252;53.596;10.060;2022-10-16T03:31:11;5.73;;;2.20;;
1682;SDS011;13252;53.596;10.060;2022-10-16T03:33:39;5.97;;;1.70;;
1682;SDS011;13252;53.596;10.060;2022-10-16T03:36:07;3.50;;;1.93;;
1682;SDS011;13252;53.596;10.060;2022-10-16T03:38:34;9.70;;;2.30;;
1682;SDS011;13252;53.596;10.060;2022-10-16T03:41:02;4.70;;;2.07;;
1682;SDS011;13252;53.596;10.060;2022-10-16T03:43:30;4.33;;;2.10;;
1682;SDS011;13252;53.596;10.060;2022-10-16T03:45:57;4.73;;;1.80;;
1682;SDS011;13252;53.596;10.060;2022-10-16T03:48:27;7.13;;;2.40;;
1682;SDS011;13252;53.596;10.060;2022-10-16T03:50:54;5.70;;;1.70;;
1682;SDS011;13252;53.596;10.060;2022-10-16T03:53:22;4.17;;;2.57;;
1682;SDS011;13252;53.596;10.060;2022-10-16T03:55:50;6.37;;;2.23;;
1682;SDS011;13252;53.596;10.060;2022-10-16T03:58:17;8.70;;;2.37;;
1682;SDS011;13252;53.596;10.060;2022-10-16T04:00:46;9.00;;;2.30;;
1682;SDS011;13252;53.596;10.060;2022-10-16T04:03:14;9.00;;;1.67;;
1682;SDS011;13252;53.596;10.060;2022-10-16T04:05:44;6.67;;;1.43;;
1682;SDS011;13252;53.596;10.060;2022-10-16T04:08:12;9.67;;;2.63;;
1682;SDS011;13252;53.596;10.060;2022-10-16T04:10:40;4.73;;;2.17;;
1682;SDS011;13252;53.596;10.060;2022-10-16T04:13:09;7.63;;;2.50;;
1682;SDS011;13252;53.596;10.060;2022-10-16T04:15:37;7.03;;;2.20;;
1682;SDS011;13252;53.596;10.060;2022-10-16T04:18:05;7.93;;;2.10;;
1682;SDS011;13252;53.596;10.060;2022-10-16T04:20:33;7.93;;;1.70;;
1682;SDS011;13252;53.596;10.060;2022-10-16T04:23:02;4.90;;;1.63;;
1682;SDS011;13252;53.596;10.060;2022-10-16T04:25:30;3.20;;;1.57;;
1682;SDS011;13252;53.596;10.060;2022-10-16T04:27:58;5.63;;;1.77;;
1682;SDS011;13252;53.596;10.060;2022-10-16T04:30:57;3.70;;;1.90;;
1682;SDS011;13252;53.596;10.060;2022-10-16T04:33:43;5.63;;;2.07;;
1682;SDS011;13252;53.596;10.060;2022-10-16T04:36:37;5.93;;;1.83;;
1682;SDS011;13252;53.596;10.060;2022-10-16T04:39:19;12.83;;;1.93;;
1682;SDS011;13252;53.596;10.060;2022-10-16T04:42:11;3.73;;;1.73;;
1682;SDS011;13252;53.596;10.060;2022-10-16T04:44:55;4.30;;;1.80;;
1682;SDS011;13252;53.596;10.060;2022-10-16T04:48:04;6.77;;;2.13;;
1682;SDS011;13252;53.596;10.060;2022-10-16T04:51:03;5.00;;;2.30;;
1682;SDS011;13252;53.596;10.060;2022-10-16T04:54:14;4.27;;;1.63;;
1682;SDS011;13252;53.596;10.060;2022-10-16T05:00:03;5.77;;;2.00;;
1682;SDS011;13252;53.596;10.060;2022-10-16T05:02:55;7.60;;;2.10;;
1682;SDS011;13252;53.596;10.060;2022-10-16T05:06:00;5.10;;;2.40;;
1682;SDS011;13252;53.596;10.060;2022-10-16T05:08:40;5.33;;;1.90;;
1682;SDS011;13252;53.596;10.060;2022-10-16T05:11:07;9.03;;;2.43;;
1682;SDS011;13252;53.596;10.060;2022-10-16T05:13:36;4.83;;;1.97;;
1682;SDS011;13252;53.596;10.060;2022-10-16T05:16:04;4.83;;;1.77;;
1682;SDS011;13252;53.596;10.060;2022-10-16T05:18:32;6.73;;;2.40;;
1682;SDS011;13252;53.596;10.060;2022-10-16T05:21:00;5.40;;;2.23;;
1682;SDS011;13252;53.596;10.060;2022-10-16T05:23:28;4.83;;;1.80;;
1682;SDS011;13252;53.596;10.060;2022-10-16T05:25:56;9.37;;;2.53;;
1682;SDS011;13252;53.596;10.060;2022-10-16T05:28:24;7.43;;;2.17;;
1682;SDS011;13252;53.596;10.060;2022-10-16T05:30:54;7.53;;;2.10;;
1682;SDS011;13252;53.596;10.060;2022-10-16T05:33:22;8.33;;;2.60;;
1682;SDS011;13252;53.596;10.060;2022-10-16T05:35:51;8.50;;;2.93;;
1682;SDS011;13252;53.596;10.060;2022-10-16T05:38:18;7.10;;;2.77;;
1682;SDS011;13252;53.596;10.060;2022-10-16T05:40:50;7.37;;;2.23;;
1682;SDS011;13252;53.596;10.060;2022-10-16T05:43:18;6.83;;;2.20;;
1682;SDS011;13252;53.596;10.060;2022-10-16T05:45:54;8.47;;;2.40;;
1682;SDS011;13252;53.596;10.060;2022-10-16T05:48:22;6.70;;;3.00;;
1682;SDS011;13252;53.596;10.060;2022-10-16T05:50:55;5.70;;;2.53;;
1682;SDS011;13252;53.596;10.060;2022-10-16T05:53:24;8.00;;;3.00;;
1682;SDS011;13252;53.596;10.060;2022-10-16T05:55:52;6.47;;;2.67;;
1682;SDS011;13252;53.596;10.060;2022-10-16T05:58:20;7.77;;;2.70;;
1682;SDS011;13252;53.596;10.060;2022-10-16T06:00:56;6.87;;;2.90;;
1682;SDS011;13252;53.596;10.060;2022-10-16T06:03:24;6.67;;;3.03;;
1682;SDS011;13252;53.596;10.060;2022-10-16T06:05:52;14.03;;;2.50;;
1682;SDS011;13252;53.596;10.060;2022-10-16T06:08:21;13.60;;;3.40;;
1682;SDS011;13252;53.596;10.060;2022-10-16T06:10:59;7.20;;;2.67;;
1682;SDS011;13252;53.596;10.060;2022-10-16T06:13:27;5.13;;;2.40;;
1682;SDS011;13252;53.596;10.060;2022-10-16T06:15:57;8.10;;;2.60;;
1682;SDS011;13252;53.596;10.060;2022-10-16T06:18:26;4.70;;;2.90;;
1682;SDS011;13252;53.596;10.060;2022-10-16T06:20:54;9.33;;;2.90;;
1682;SDS011;13252;53.596;10.060;2022-10-16T06:23:22;8.33;;;2.97;;
1682;SDS011;13252;53.596;10.060;2022-10-16T06:25:50;5.70;;;2.50;;
1682;SDS011;13252;53.596;10.060;2022-10-16T06:28:18;3.70;;;2.53;;
1682;SDS011;13252;53.596;10.060;2022-10-16T06:30:46;8.40;;;3.37;;
1682;SDS011;13252;53.596;10.060;2022-10-16T06:33:15;6.10;;;3.10;;
1682;SDS011;13252;53.596;10.060;2022-10-16T06:35:42;6.77;;;2.97;;
1682;SDS011;13252;53.596;10.060;2022-10-16T06:38:10;8.87;;;3.33;;
1682;SDS011;13252;53.596;10.060;2022-10-16T06:40:38;6.33;;;2.90;;
1682;SDS011;13252;53.596;10.060;2022-10-16T06:43:05;8.63;;;2.90;;
1682;SDS011;13252;53.596;10.060;2022-10-16T06:45:33;7.57;;;2.40;;
1682;SDS011;13252;53.596;10.060;2022-10-16T06:48:02;6.80;;;2.37;;
1682;SDS011;13252;53.596;10.060;2022-10-16T06:50:31;8.23;;;3.53;;
1682;SDS011;13252;53.596;10.060;2022-10-16T06:52:58;5.43;;;2.87;;
1682;SDS011;13252;53.596;10.060;2022-10-16T06:55:26;5.40;;;3.17;;
1682;SDS011;13252;53.596;10.060;2022-10-16T06:57:55;8.87;;;3.80;;
1682;SDS011;13252;53.596;10.060;2022-10-16T07:00:22;10.80;;;3.10;;
1682;SDS011;13252;53.596;10.060;2022-10-16T07:02:55;10.83;;;3.53;;
1682;SDS011;13252;53.596;10.060;2022-10-16T07:05:22;10.47;;;2.80;;
1682;SDS011;13252;53.596;10.060;2022-10-16T07:07:52;17.07;;;4.37;;
1682;SDS011;13252;53.596;10.060;2022-10-16T07:10:20;8.07;;;3.10;;
1682;SDS011;13252;53.596;10.060;2022-10-16T07:12:50;14.70;;;3.00;;
1682;SDS011;13252;53.596;10.060;2022-10-16T07:15:18;7.00;;;3.47;;
1682;SDS011;13252;53.596;10.060;2022-10-16T07:17:45;8.33;;;3.87;;
1682;SDS011;13252;53.596;10.060;2022-10-16T07:20:13;6.47;;;2.80;;
1682;SDS011;13252;53.596;10.060;2022-10-16T07:22:41;5.37;;;3.27;;
1682;SDS011;13252;53.596;10.060;2022-10-16T07:25:10;5.87;;;3.00;;
1682;SDS011;13252;53.596;10.060;2022-10-16T07:27:38;8.60;;;3.93;;
1682;SDS011;13252;53.596;10.060;2022-10-16T07:30:06;7.40;;;3.07;;
1682;SDS011;13252;53.596;10.060;2022-10-16T07:32:34;6.10;;;3.00;;
1682;SDS011;13252;53.596;10.060;2022-10-16T07:35:02;8.97;;;3.23;;
1682;SDS011;13252;53.596;10.060;2022-10-16T07:37:30;6.37;;;3.40;;
1682;SDS011;13252;53.596;10.060;2022-10-16T07:39:57;6.33;;;3.03;;
1682;SDS011;13252;53.596;10.060;2022-10-16T07:42:26;5.70;;;3.40;;
1682;SDS011;13252;53.596;10.060;2022-10-16T07:44:54;4.73;;;2.77;;
1682;SDS011;13252;53.596;10.060;2022-10-16T07:47:22;6.60;;;3.20;;
1682;SDS011;13252;53.596;10.060;2022-10-16T07:49:50;5.00;;;3.37;;
1682;SDS011;13252;53.596;10.060;2022-10-16T07:52:18;6.67;;;2.90;;
1682;SDS011;13252;53.596;10.060;2022-10-16T07:54:45;4.70;;;2.90;;
1682;SDS011;13252;53.596;10.060;2022-10-16T07:57:13;4.90;;;2.90;;
1682;SDS011;13252;53.596;10.060;2022-10-16T07:59:47;5.63;;;2.77;;
1682;SDS011;13252;53.596;10.060;2022-10-16T08:02:14;5.97;;;2.60;;
1682;SDS011;13252;53.596;10.060;2022-10-16T08:04:42;4.33;;;2.80;;
1682;SDS011;13252;53.596;10.060;2022-10-16T08:07:09;5.30;;;2.60;;
1682;SDS011;13252;53.596;10.060;2022-10-16T08:09:37;3.80;;;2.37;;
1682;SDS011;13252;53.596;10.060;2022-10-16T08:12:05;5.37;;;2.87;;
1682;SDS011;13252;53.596;10.060;2022-10-16T08:14:32;9.27;;;2.67;;
1682;SDS011;13252;53.596;10.060;2022-10-16T08:17:01;4.40;;;2.50;;
1682;SDS011;13252;53.596;10.060;2022-10-16T08:19:30;3.60;;;2.00;;
1682;SDS011;13252;53.596;10.060;2022-10-16T08:22:00;5.23;;;2.90;;
1682;SDS011;13252;53.596;10.060;2022-10-16T08:24:28;5.47;;;2.23;;
1682;SDS011;13252;53.596;10.060;2022-10-16T08:26:57;6.10;;;2.10;;
1682;SDS011;13252;53.596;10.060;2022-10-16T08:29:25;3.67;;;2.50;;
1682;SDS011;13252;53.596;10.060;2022-10-16T08:31:52;4.47;;;2.40;;
1682;SDS011;13252;53.596;10.060;2022-10-16T08:34:21;4.60;;;2.90;;
1682;SDS011;13252;53.596;10.060;2022-10-16T08:36:49;5.30;;;2.73;;
1682;SDS011;13252;53.596;10.060;2022-10-16T08:39:17;4.77;;;2.50;;
1682;SDS011;13252;53.596;10.060;2022-10-16T08:41:53;9.40;;;2.33;;
1682;SDS011;13252;53.596;10.060;2022-10-16T08:47:45;6.67;;;2.93;;
1682;SDS011;13252;53.596;10.060;2022-10-16T08:50:21;7.80;;;3.30;;
1682;SDS011;13252;53.596;10.060;2022-10-16T08:52:51;5.40;;;2.70;;
1682;SDS011;13252;53.596;10.060;2022-10-16T08:55:28;4.37;;;2.93;;
1682;SDS011;13252;53.596;10.060;2022-10-16T08:58:00;5.33;;;2.40;;
1682;SDS011;13252;53.596;10.060;2022-10-16T09:00:28;4.30;;;2.20;;
1682;SDS011;13252;53.596;10.060;2022-10-16T09:02:59;5.30;;;2.53;;
1682;SDS011;13252;53.596;10.060;2022-10-16T09:08:28;4.00;;;2.40;;
1682;SDS011;13252;53.596;10.060;2022-10-16T09:10:59;4.87;;;2.63;;
1682;SDS011;13252;53.596;10.060;2022-10-16T09:13:32;6.37;;;2.37;;
1682;SDS011;13252;53.596;10.060;2022-10-16T09:16:10;6.47;;;2.50;;
1682;SDS011;13252;53.596;10.060;2022-10-16T09:18:43;5.53;;;2.60;;
1682;SDS011;13252;53.596;10.060;2022-10-16T09:21:18;13.83;;;2.70;;
1682;SDS011;13252;53.596;10.060;2022-10-16T09:23:47;5.20;;;2.50;;
1682;SDS011;13252;53.596;10.060;2022-10-16T09:26:15;8.50;;;2.70;;
1682;SDS011;13252;53.596;10.060;2022-10-16T09:28:44;3.50;;;2.00;;
1682;SDS011;13252;53.596;10.060;2022-10-16T09:31:13;6.00;;;1.80;;
1682;SDS011;13252;53.596;10.060;2022-10-16T09:33:43;6.40;;;1.73;;
1682;SDS011;13252;53.596;10.060;2022-10-16T09:36:12;6.30;;;2.10;;
1682;SDS011;13252;53.596;10.060;2022-10-16T09:38:42;4.70;;;1.63;;
1682;SDS011;13252;53.596;10.060;2022-10-16T09:41:14;5.70;;;2.00;;
1682;SDS011;13252;53.596;10.060;2022-10-16T09:43:48;4.83;;;1.97;;
1682;SDS011;13252;53.596;10.060;2022-10-16T09:48:50;5.70;;;2.27;;
1682;SDS011;13252;53.596;10.060;2022-10-16T09:51:19;4.87;;;1.80;;
1682;SDS011;13252;53.596;10.060;2022-10-16T09:53:54;5.43;;;1.60;;
1682;SDS011;13252;53.596;10.060;2022-10-16T09:56:24;8.63;;;2.10;;
1682;SDS011;13252;53.596;10.060;2022-10-16T09:58:53;9.43;;;1.90;;
1682;SDS011;13252;53.596;10.060;2022-10-16T10:01:24;5.07;;;1.80;;
1682;SDS011;13252;53.596;10.060;2022-10-16T10:03:57;4.63;;;1.40;;
1682;SDS011;13252;53.596;10.060;2022-10-16T10:06:28;5.67;;;1.60;;
1682;SDS011;13252;53.596;10.060;2022-10-16T10:08:59;7.90;;;1.50;;
1682;SDS011;13252;53.596;10.060;2022-10-16T10:14:20;8.83;;;1.87;;
1682;SDS011;13252;53.596;10.060;2022-10-16T10:16:50;7.43;;;1.63;;
1682;SDS011;13252;53.596;10.060;2022-10-16T10:19:21;5.40;;;1.90;;
1682;SDS011;13252;53.596;10.060;2022-10-16T10:21:56;6.67;;;2.20;;
1682;SDS011;13252;53.596;10.060;2022-10-16T10:24:25;5.60;;;1.70;;
1682;SDS011;13252;53.596;10.060;2022-10-16T10:26:54;4.10;;;1.77;;
1682;SDS011;13252;53.596;10.060;2022-10-16T10:29:34;6.87;;;1.87;;
1682;SDS011;13252;53.596;10.060;2022-10-16T10:32:11;5.23;;;1.67;;
1682;SDS011;13252;53.596;10.060;2022-10-16T10:34:49;10.30;;;2.70;;
1682;SDS011;13252;53.596;10.060;2022-10-16T10:37:27;5.77;;;1.87;;
1682;SDS011;13252;53.596;10.060;2022-10-16T10:40:05;6.50;;;2.00;;
1682;SDS011;13252;53.596;10.060;2022-10-16T10:42:40;6.50;;;2.10;;
1682;SDS011;13252;53.596;10.060;2022-10-16T10:45:16;4.53;;;1.40;;
1682;SDS011;13252;53.596;10.060;2022-10-16T10:47:47;8.23;;;1.67;;
1682;SDS011;13252;53.596;10.060;2022-10-16T10:50:24;4.83;;;1.57;;
1682;SDS011;13252;53.596;10.060;2022-10-16T10:52:58;4.37;;;1.33;;
1682;SDS011;13252;53.596;10.060;2022-10-16T10:55:31;6.40;;;1.07;;
1682;SDS011;13252;53.596;10.060;2022-10-16T10:58:14;6.57;;;1.37;;
1682;SDS011;13252;53.596;10.060;2022-10-16T11:01:04;3.90;;;1.40;;
1682;SDS011;13252;53.596;10.060;2022-10-16T11:03:39;11.23;;;1.90;;
1682;SDS011;13252;53.596;10.060;2022-10-16T11:06:15;6.30;;;1.13;;
1682;SDS011;13252;53.596;10.060;2022-10-16T11:08:45;5.27;;;1.60;;
1682;SDS011;13252;53.596;10.060;2022-10-16T11:11:18;5.20;;;1.70;;
1682;SDS011;13252;53.596;10.060;2022-10-16T11:13:50;4.23;;;1.50;;
1682;SDS011;13252;53.596;10.060;2022-10-16T11:16:23;5.53;;;1.37;;
1682;SDS011;13252;53.596;10.060;2022-10-16T11:18:55;6.63;;;1.40;;
1682;SDS011;13252;53.596;10.060;2022-10-16T11:21:25;8.13;;;1.73;;
1682;SDS011;13252;53.596;10.060;2022-10-16T11:23:57;10.70;;;1.37;;
1682;SDS011;13252;53.596;10.060;2022-10-16T11:26:30;5.80;;;1.20;;
1682;SDS011;13252;53.596;10.060;2022-10-16T11:29:01;5.80;;;1.20;;
1682;SDS011;13252;53.596;10.060;2022-10-16T11:31:32;5.63;;;1.40;;
1682;SDS011;13252;53.596;10.060;2022-10-16T11:34:04;6.00;;;1.40;;
1682;SDS011;13252;53.596;10.060;2022-10-16T11:36:35;6.17;;;1.10;;
1682;SDS011;13252;53.596;10.060;2022-10-16T11:39:08;9.33;;;1.37;;
1682;SDS011;13252;53.596;10.060;2022-10-16T11:41:52;4.83;;;1.50;;
1682;SDS011;13252;53.596;10.060;2022-10-16T11:44:27;3.80;;;1.50;;
1682;SDS011;13252;53.596;10.060;2022-10-16T11:47:02;4.60;;;1.50;;
1682;SDS011;13252;53.596;10.060;2022-10-16T11:49:57;5.00;;;1.33;;
1682;SDS011;13252;53.596;10.060;2022-10-16T11:52:28;4.43;;;1.63;;
1682;SDS011;13252;53.596;10.060;2022-10-16T11:55:03;5.57;;;1.20;;
1682;SDS011;13252;53.596;10.060;2022-10-16T11:57:34;16.13;;;1.57;;
1682;SDS011;13252;53.596;10.060;2022-10-16T12:00:08;6.13;;;1.80;;
1682;SDS011;13252;53.596;10.060;2022-10-16T12:02:43;6.27;;;1.23;;
1682;SDS011;13252;53.596;10.060;2022-10-16T12:05:22;4.30;;;0.97;;
1682;SDS011;13252;53.596;10.060;2022-10-16T12:07:55;8.90;;;1.60;;
1682;SDS011;13252;53.596;10.060;2022-10-16T12:10:29;3.97;;;1.10;;
1682;SDS011;13252;53.596;10.060;2022-10-16T12:16:04;7.93;;;1.47;;
1682;SDS011;13252;53.596;10.060;2022-10-16T12:18:33;8.60;;;1.47;;
1682;SDS011;13252;53.596;10.060;2022-10-16T12:21:01;4.40;;;1.70;;
1682;SDS011;13252;53.596;10.060;2022-10-16T12:23:32;7.17;;;1.97;;
1682;SDS011;13252;53.596;10.060;2022-10-16T12:26:00;5.07;;;1.47;;
1682;SDS011;13252;53.596;10.060;2022-10-16T12:28:29;6.23;;;1.40;;
1682;SDS011;13252;53.596;10.060;2022-10-16T12:31:00;6.33;;;1.17;;
1682;SDS011;13252;53.596;10.060;2022-10-16T12:33:29;7.47;;;1.70;;
1682;SDS011;13252;53.596;10.060;2022-10-16T12:35:58;6.17;;;1.23;;
1682;SDS011;13252;53.596;10.060;2022-10-16T12:38:27;7.00;;;1.70;;
1682;SDS011;13252;53.596;10.060;2022-10-16T12:40:58;5.67;;;1.60;;
1682;SDS011;13252;53.596;10.060;2022-10-16T12:43:34;7.63;;;1.90;;
1682;SDS011;13252;53.596;10.060;2022-10-16T12:46:19;5.17;;;2.30;;
1682;SDS011;13252;53.596;10.060;2022-10-16T12:48:49;8.10;;;1.47;;
1682;SDS011;13252;53.596;10.060;2022-10-16T12:51:34;14.70;;;2.20;;
1682;SDS011;13252;53.596;10.060;2022-10-16T12:54:04;8.60;;;1.63;;
1682;SDS011;13252;53.596;10.060;2022-10-16T12:56:36;4.03;;;1.40;;
1682;SDS011;13252;53.596;10.060;2022-10-16T12:59:13;5.10;;;1.10;;
1682;SDS011;13252;53.596;10.060;2022-10-16T13:01:51;9.67;;;2.37;;
1682;SDS011;13252;53.596;10.060;2022-10-16T13:04:29;5.53;;;1.53;;
1682;SDS011;13252;53.596;10.060;2022-10-16T13:07:05;11.53;;;1.87;;
1682;SDS011;13252;53.596;10.060;2022-10-16T13:09:48;6.70;;;1.40;;
1682;SDS011;13252;53.596;10.060;2022-10-16T13:12:33;7.27;;;1.47;;
1682;SDS011;13252;53.596;10.060;2022-10-16T13:15:16;7.67;;;1.60;;
1682;SDS011;13252;53.596;10.060;2022-10-16T13:18:05;8.90;;;1.37;;
1682;SDS011;13252;53.596;10.060;2022-10-16T13:20:44;5.70;;;1.57;;
1682;SDS011;13252;53.596;10.060;2022-10-16T13:23:20;6.73;;;1.50;;
1682;SDS011;13252;53.596;10.060;2022-10-16T13:25:55;6.70;;;1.40;;
1682;SDS011;13252;53.596;10.060;2022-10-16T13:28:28;5.93;;;1.30;;
1682;SDS011;13252;53.596;10.060;2022-10-16T13:30:57;4.70;;;1.03;;
1682;SDS011;13252;53.596;10.060;2022-10-16T13:33:28;3.20;;;1.00;;
1682;SDS011;13252;53.596;10.060;2022-10-16T13:35:58;4.90;;;1.40;;
1682;SDS011;13252;53.596;10.060;2022-10-16T13:38:27;8.93;;;1.60;;
1682;SDS011;13252;53.596;10.060;2022-10-16T13:40:56;4.93;;;1.37;;
1682;SDS011;13252;53.596;10.060;2022-10-16T13:43:25;5.00;;;1.80;;
1682;SDS011;13252;53.596;10.060;2022-10-16T13:45:56;9.40;;;1.50;;
1682;SDS011;13252;53.596;10.060;2022-10-16T13:48:26;10.43;;;1.70;;
1682;SDS011;13252;53.596;10.060;2022-10-16T13:51:04;4.53;;;1.30;;
1682;SDS011;13252;53.596;10.060;2022-10-16T13:53:34;6.03;;;1.47;;
1682;SDS011;13252;53.596;10.060;2022-10-16T13:56:03;4.97;;;0.90;;
1682;SDS011;13252;53.596;10.060;2022-10-16T13:58:32;9.80;;;1.33;;
1682;SDS011;13252;53.596;10.060;2022-10-16T14:01:00;8.27;;;1.87;;
1682;SDS011;13252;53.596;10.060;2022-10-16T14:03:33;6.20;;;1.50;;
1682;SDS011;13252;53.596;10.060;2022-10-16T14:06:02;8.00;;;1.57;;
1682;SDS011;13252;53.596;10.060;2022-10-16T14:08:31;5.43;;;1.40;;
1682;SDS011;13252;53.596;10.060;2022-10-16T14:11:00;8.30;;;1.90;;
1682;SDS011;13252;53.596;10.060;2022-10-16T14:13:29;8.47;;;1.67;;
1682;SDS011;13252;53.596;10.060;2022-10-16T14:16:00;7.43;;;1.70;;
1682;SDS011;13252;53.596;10.060;2022-10-16T14:18:30;7.10;;;2.17;;
1682;SDS011;13252;53.596;10.060;2022-10-16T14:21:05;7.90;;;1.53;;
1682;SDS011;13252;53.596;10.060;2022-10-16T14:23:35;6.67;;;1.00;;
1682;SDS011;13252;53.596;10.060;2022-10-16T14:26:15;6.27;;;1.50;;
1682;SDS011;13252;53.596;10.060;2022-10-16T14:28:44;5.60;;;1.73;;
1682;SDS011;13252;53.596;10.060;2022-10-16T14:31:26;7.20;;;2.03;;
1682;SDS011;13252;53.596;10.060;2022-10-16T14:33:56;5.33;;;1.47;;
1682;SDS011;13252;53.596;10.060;2022-10-16T14:36:26;6.93;;;1.70;;
1682;SDS011;13252;53.596;10.060;2022-10-16T14:38:59;8.70;;;1.50;;
1682;SDS011;13252;53.596;10.060;2022-10-16T14:41:29;6.77;;;1.87;;
1682;SDS011;13252;53.596;10.060;2022-10-16T14:43:58;5.50;;;1.20;;
1682;SDS011;13252;53.596;10.060;2022-10-16T14:46:30;6.70;;;1.50;;
1682;SDS011;13252;53.596;10.060;2022-10-16T14:49:00;6.63;;;1.80;;
1682;SDS011;13252;53.596;10.060;2022-10-16T14:51:32;5.30;;;1.53;;
1682;SDS011;13252;53.596;10.060;2022-10-16T14:54:00;5.90;;;1.53;;
1682;SDS011;13252;53.596;10.060;2022-10-16T14:56:29;4.60;;;1.70;;
1682;SDS011;13252;53.596;10.060;2022-10-16T14:58:58;5.97;;;1.40;;
1682;SDS011;13252;53.596;10.060;2022-10-16T15:01:26;5.70;;;1.47;;
1682;SDS011;13252;53.596;10.060;2022-10-16T15:03:54;5.80;;;1.40;;
1682;SDS011;13252;53.596;10.060;2022-10-16T15:06:22;12.27;;;1.27;;
1682;SDS011;13252;53.596;10.060;2022-10-16T15:08:51;7.83;;;1.83;;
1682;SDS011;13252;53.596;10.060;2022-10-16T15:11:19;8.60;;;1.90;;
1682;SDS011;13252;53.596;10.060;2022-10-16T15:13:47;7.27;;;1.70;;
1682;SDS011;13252;53.596;10.060;2022-10-16T15:16:15;4.30;;;1.20;;
1682;SDS011;13252;53.596;10.060;2022-10-16T15:18:43;7.63;;;1.93;;
1682;SDS011;13252;53.596;10.060;2022-10-16T15:21:14;6.20;;;1.40;;
1682;SDS011;13252;53.596;10.060;2022-10-16T15:23:49;11.10;;;2.10;;
1682;SDS011;13252;53.596;10.060;2022-10-16T15:26:18;6.93;;;1.63;;
1682;SDS011;13252;53.596;10.060;2022-10-16T15:28:45;9.93;;;1.37;;
1682;SDS011;13252;53.596;10.060;2022-10-16T15:31:13;11.47;;;2.10;;
1682;SDS011;13252;53.596;10.060;2022-10-16T15:33:41;10.47;;;1.93;;
1682;SDS011;13252;53.596;10.060;2022-10-16T15:36:09;7.17;;;1.77;;
1682;SDS011;13252;53.596;10.060;2022-10-16T15:38:37;12.07;;;2.10;;
1682;SDS011;13252;53.596;10.060;2022-10-16T15:41:06;9.37;;;1.73;;
1682;SDS011;13252;53.596;10.060;2022-10-16T15:43:34;5.30;;;1.50;;
1682;SDS011;13252;53.596;10.060;2022-10-16T15:46:03;7.13;;;2.00;;
1682;SDS011;13252;53.596;10.060;2022-10-16T15:48:32;9.97;;;2.70;;
1682;SDS011;13252;53.596;10.060;2022-10-16T15:51:00;6.00;;;1.57;;
1682;SDS011;13252;53.596;10.060;2022-10-16T15:53:28;9.03;;;1.77;;
1682;SDS011;13252;53.596;10.060;2022-10-16T15:55:55;9.80;;;2.50;;
1682;SDS011;13252;53.596;10.060;2022-10-16T15:58:24;9.53;;;2.00;;